sensor_id;sensor_type;location;lat;lon;timestamp;temperature;humidity
6357;DHT22;3211;53.452;-2.264;2023-07-30T00:01:59;15.30;1.00
6357;DHT22;3211;53.452;-2.264;2023-07-30T00:04:41;15.30;1.00
6357;DHT22;3211;53.452;-2.264;2023-07-30T00:07:23;15.30;9.90
6357;DHT22;3211;53.452;-2.264;2023-07-30T00:10:06;15.20;16.50
6357;DHT22;3211;53.452;-2.264;2023-07-30T00:12:48;15.30;48.70
6357;DHT22;3211;53.452;-2.264;2023-07-30T00:15:32;15.20;25.50
6357;DHT22;3211;53.452;-2.264;2023-07-30T00:18:15;15.20;31.20
6357;DHT22;3211;53.452;-2.264;2023-07-30T00:20:56;15.20;99.90
6357;DHT22;3211;53.452;-2.264;2023-07-30T00:23:38;15.30;50.50
6357;DHT22;3211;53.452;-2.264;2023-07-30T00:26:20;15.20;40.30
6357;DHT22;3211;53.452;-2.264;2023-07-30T00:29:04;15.30;92.40
6357;DHT22;3211;53.452;-2.264;2023-07-30T00:31:47;15.30;11.40
6357;DHT22;3211;53.452;-2.264;2023-07-30T00:34:29;15.20;61.60
6357;DHT22;3211;53.452;-2.264;2023-07-30T00:37:12;15.30;65.70
6357;DHT22;3211;53.452;-2.264;2023-07-30T00:39:54;15.20;26.00
6357;DHT22;3211;53.452;-2.264;2023-07-30T00:42:36;15.20;25.80
6357;DHT22;3211;53.452;-2.264;2023-07-30T00:45:19;15.10;97.00
6357;DHT22;3211;53.452;-2.264;2023-07-30T00:48:02;15.00;99.90
6357;DHT22;3211;53.452;-2.264;2023-07-30T00:50:44;15.00;99.90
6357;DHT22;3211;53.452;-2.264;2023-07-30T00:53:27;15.00;99.90
6357;DHT22;3211;53.452;-2.264;2023-07-30T00:56:10;15.00;99.90
6357;DHT22;3211;53.452;-2.264;2023-07-30T00:58:52;15.00;99.90
6357;DHT22;3211;53.452;-2.264;2023-07-30T01:01:36;15.00;99.90
6357;DHT22;3211;53.452;-2.264;2023-07-30T01:04:21;14.90;99.90
6357;DHT22;3211;53.452;-2.264;2023-07-30T01:07:03;15.00;99.90
6357;DHT22;3211;53.452;-2.264;2023-07-30T01:09:45;14.90;99.90
6357;DHT22;3211;53.452;-2.264;2023-07-30T01:12:28;14.90;99.90
6357;DHT22;3211;53.452;-2.264;2023-07-30T01:15:11;14.90;99.90
6357;DHT22;3211;53.452;-2.264;2023-07-30T01:17:53;14.80;99.90
6357;DHT22;3211;53.452;-2.264;2023-07-30T01:20:37;14.80;99.90
6357;DHT22;3211;53.452;-2.264;2023-07-30T01:23:20;14.90;99.90
6357;DHT22;3211;53.452;-2.264;2023-07-30T01:26:07;15.00;99.90
6357;DHT22;3211;53.452;-2.264;2023-07-30T01:28:54;15.00;99.90
6357;DHT22;3211;53.452;-2.264;2023-07-30T01:31:40;15.00;99.90
6357;DHT22;3211;53.452;-2.264;2023-07-30T01:34:23;15.10;99.90
6357;DHT22;3211;53.452;-2.264;2023-07-30T01:37:10;15.00;99.90
6357;DHT22;3211;53.452;-2.264;2023-07-30T01:39:55;14.90;99.90
6357;DHT22;3211;53.452;-2.264;2023-07-30T01:42:37;14.90;99.90
6357;DHT22;3211;53.452;-2.264;2023-07-30T01:45:19;14.90;99.90
6357;DHT22;3211;53.452;-2.264;2023-07-30T01:48:01;14.80;99.90
6357;DHT22;3211;53.452;-2.264;2023-07-30T01:50:43;14.80;99.90
6357;DHT22;3211;53.452;-2.264;2023-07-30T01:53:27;14.80;99.90
6357;DHT22;3211;53.452;-2.264;2023-07-30T01:56:11;14.80;99.90
6357;DHT22;3211;53.452;-2.264;2023-07-30T01:58:52;14.80;99.90
6357;DHT22;3211;53.452;-2.264;2023-07-30T02:01:35;14.80;99.90
6357;DHT22;3211;53.452;-2.264;2023-07-30T02:04:17;14.80;92.40
6357;DHT22;3211;53.452;-2.264;2023-07-30T02:06:58;14.70;99.90
6357;DHT22;3211;53.452;-2.264;2023-07-30T02:09:40;14.60;99.90
6357;DHT22;3211;53.452;-2.264;2023-07-30T02:12:24;14.70;99.90
6357;DHT22;3211;53.452;-2.264;2023-07-30T02:15:06;14.70;85.20
6357;DHT22;3211;53.452;-2.264;2023-07-30T02:17:48;14.70;1.00
6357;DHT22;3211;53.452;-2.264;2023-07-30T02:20:30;14.80;1.00
6357;DHT22;3211;53.452;-2.264;2023-07-30T02:23:14;14.80;1.00
6357;DHT22;3211;53.452;-2.264;2023-07-30T02:25:57;14.70;1.00
6357;DHT22;3211;53.452;-2.264;2023-07-30T02:28:40;14.80;99.90
6357;DHT22;3211;53.452;-2.264;2023-07-30T02:31:22;14.90;99.90
6357;DHT22;3211;53.452;-2.264;2023-07-30T02:34:04;14.90;99.90
6357;DHT22;3211;53.452;-2.264;2023-07-30T02:36:48;15.00;99.90
6357;DHT22;3211;53.452;-2.264;2023-07-30T02:39:30;15.00;99.90
6357;DHT22;3211;53.452;-2.264;2023-07-30T02:42:12;15.10;1.00
6357;DHT22;3211;53.452;-2.264;2023-07-30T02:44:55;15.10;1.00
6357;DHT22;3211;53.452;-2.264;2023-07-30T02:47:37;15.10;1.00
6357;DHT22;3211;53.452;-2.264;2023-07-30T02:50:19;15.10;1.00
6357;DHT22;3211;53.452;-2.264;2023-07-30T02:53:01;15.20;1.00
6357;DHT22;3211;53.452;-2.264;2023-07-30T02:55:43;15.20;1.00
6357;DHT22;3211;53.452;-2.264;2023-07-30T02:58:25;15.20;1.00
6357;DHT22;3211;53.452;-2.264;2023-07-30T03:01:08;15.20;1.00
6357;DHT22;3211;53.452;-2.264;2023-07-30T03:03:50;15.20;1.00
6357;DHT22;3211;53.452;-2.264;2023-07-30T03:06:32;15.20;1.00
6357;DHT22;3211;53.452;-2.264;2023-07-30T03:09:14;15.20;1.00
6357;DHT22;3211;53.452;-2.264;2023-07-30T03:11:56;15.30;1.00
6357;DHT22;3211;53.452;-2.264;2023-07-30T03:14:38;15.20;1.00
6357;DHT22;3211;53.452;-2.264;2023-07-30T03:17:21;15.10;1.00
6357;DHT22;3211;53.452;-2.264;2023-07-30T03:20:04;15.10;14.90
6357;DHT22;3211;53.452;-2.264;2023-07-30T03:22:47;15.00;1.00
6357;DHT22;3211;53.452;-2.264;2023-07-30T03:25:29;15.10;1.00
6357;DHT22;3211;53.452;-2.264;2023-07-30T03:28:11;15.00;52.90
6357;DHT22;3211;53.452;-2.264;2023-07-30T03:30:53;14.90;99.90
6357;DHT22;3211;53.452;-2.264;2023-07-30T03:33:37;14.80;99.90
6357;DHT22;3211;53.452;-2.264;2023-07-30T03:36:19;14.80;99.90
6357;DHT22;3211;53.452;-2.264;2023-07-30T03:39:01;14.80;99.90
6357;DHT22;3211;53.452;-2.264;2023-07-30T03:41:43;14.70;99.90
6357;DHT22;3211;53.452;-2.264;2023-07-30T03:44:25;14.70;99.90
6357;DHT22;3211;53.452;-2.264;2023-07-30T03:47:07;14.70;99.90
6357;DHT22;3211;53.452;-2.264;2023-07-30T03:49:50;14.60;99.90
6357;DHT22;3211;53.452;-2.264;2023-07-30T03:52:32;14.60;99.90
6357;DHT22;3211;53.452;-2.264;2023-07-30T03:55:14;14.70;99.90
6357;DHT22;3211;53.452;-2.264;2023-07-30T03:57:56;14.70;99.90
6357;DHT22;3211;53.452;-2.264;2023-07-30T04:00:39;14.70;99.90
6357;DHT22;3211;53.452;-2.264;2023-07-30T04:03:21;14.80;99.90
6357;DHT22;3211;53.452;-2.264;2023-07-30T04:06:04;14.80;90.20
6357;DHT22;3211;53.452;-2.264;2023-07-30T04:08:46;14.80;99.90
6357;DHT22;3211;53.452;-2.264;2023-07-30T04:11:28;14.80;99.90
6357;DHT22;3211;53.452;-2.264;2023-07-30T04:14:10;14.80;99.90
6357;DHT22;3211;53.452;-2.264;2023-07-30T04:16:52;14.80;99.90
6357;DHT22;3211;53.452;-2.264;2023-07-30T04:19:34;14.80;99.90
6357;DHT22;3211;53.452;-2.264;2023-07-30T04:22:17;14.80;99.90
6357;DHT22;3211;53.452;-2.264;2023-07-30T04:24:59;14.80;99.90
6357;DHT22;3211;53.452;-2.264;2023-07-30T04:27:41;14.90;99.90
6357;DHT22;3211;53.452;-2.264;2023-07-30T04:30:23;14.90;72.50
6357;DHT22;3211;53.452;-2.264;2023-07-30T04:33:05;15.00;16.40
6357;DHT22;3211;53.452;-2.264;2023-07-30T04:35:47;14.90;3.50
6357;DHT22;3211;53.452;-2.264;2023-07-30T04:38:30;14.90;6.50
6357;DHT22;3211;53.452;-2.264;2023-07-30T04:41:12;14.90;21.00
6357;DHT22;3211;53.452;-2.264;2023-07-30T04:43:54;14.90;93.80
6357;DHT22;3211;53.452;-2.264;2023-07-30T04:46:36;14.90;99.90
6357;DHT22;3211;53.452;-2.264;2023-07-30T04:49:18;14.90;99.90
6357;DHT22;3211;53.452;-2.264;2023-07-30T04:52:00;15.00;99.90
6357;DHT22;3211;53.452;-2.264;2023-07-30T04:54:43;15.00;91.00
6357;DHT22;3211;53.452;-2.264;2023-07-30T04:57:25;15.00;73.40
6357;DHT22;3211;53.452;-2.264;2023-07-30T05:00:08;15.00;99.90
6357;DHT22;3211;53.452;-2.264;2023-07-30T05:02:50;14.90;99.90
6357;DHT22;3211;53.452;-2.264;2023-07-30T05:05:32;14.90;99.90
6357;DHT22;3211;53.452;-2.264;2023-07-30T05:08:14;14.90;99.90
6357;DHT22;3211;53.452;-2.264;2023-07-30T05:10:57;15.00;99.90
6357;DHT22;3211;53.452;-2.264;2023-07-30T05:13:39;15.00;75.20
6357;DHT22;3211;53.452;-2.264;2023-07-30T05:16:21;15.00;86.10
6357;DHT22;3211;53.452;-2.264;2023-07-30T05:19:03;15.00;25.70
6357;DHT22;3211;53.452;-2.264;2023-07-30T05:21:45;15.00;99.90
6357;DHT22;3211;53.452;-2.264;2023-07-30T05:24:27;15.00;80.90
6357;DHT22;3211;53.452;-2.264;2023-07-30T05:27:10;15.00;99.90
6357;DHT22;3211;53.452;-2.264;2023-07-30T05:29:52;14.90;99.90
6357;DHT22;3211;53.452;-2.264;2023-07-30T05:32:34;14.90;1.00
6357;DHT22;3211;53.452;-2.264;2023-07-30T05:35:16;14.90;1.00
6357;DHT22;3211;53.452;-2.264;2023-07-30T05:37:59;14.80;1.00
6357;DHT22;3211;53.452;-2.264;2023-07-30T05:40:41;14.80;99.90
6357;DHT22;3211;53.452;-2.264;2023-07-30T05:43:25;14.80;99.90
6357;DHT22;3211;53.452;-2.264;2023-07-30T05:46:07;14.80;99.90
6357;DHT22;3211;53.452;-2.264;2023-07-30T05:48:49;14.80;99.90
6357;DHT22;3211;53.452;-2.264;2023-07-30T05:51:31;14.80;99.90
6357;DHT22;3211;53.452;-2.264;2023-07-30T05:54:13;14.90;99.90
6357;DHT22;3211;53.452;-2.264;2023-07-30T05:56:55;14.90;99.90
6357;DHT22;3211;53.452;-2.264;2023-07-30T05:59:38;14.70;1.00
6357;DHT22;3211;53.452;-2.264;2023-07-30T06:02:20;14.70;1.00
6357;DHT22;3211;53.452;-2.264;2023-07-30T06:05:03;14.70;99.90
6357;DHT22;3211;53.452;-2.264;2023-07-30T06:07:45;14.70;1.00
6357;DHT22;3211;53.452;-2.264;2023-07-30T06:10:27;14.80;1.00
6357;DHT22;3211;53.452;-2.264;2023-07-30T06:13:09;14.60;99.90
6357;DHT22;3211;53.452;-2.264;2023-07-30T06:15:53;14.50;1.00
6357;DHT22;3211;53.452;-2.264;2023-07-30T06:18:35;14.50;1.00
6357;DHT22;3211;53.452;-2.264;2023-07-30T06:21:17;14.30;99.90
6357;DHT22;3211;53.452;-2.264;2023-07-30T06:23:59;14.40;99.90
6357;DHT22;3211;53.452;-2.264;2023-07-30T06:26:41;14.50;99.90
6357;DHT22;3211;53.452;-2.264;2023-07-30T06:29:23;14.60;99.90
6357;DHT22;3211;53.452;-2.264;2023-07-30T06:32:07;14.50;99.60
6357;DHT22;3211;53.452;-2.264;2023-07-30T06:34:49;14.50;99.90
6357;DHT22;3211;53.452;-2.264;2023-07-30T06:37:31;14.60;99.90
6357;DHT22;3211;53.452;-2.264;2023-07-30T06:40:13;14.60;99.90
6357;DHT22;3211;53.452;-2.264;2023-07-30T06:42:55;14.60;99.90
6357;DHT22;3211;53.452;-2.264;2023-07-30T06:45:37;14.60;1.00
6357;DHT22;3211;53.452;-2.264;2023-07-30T06:48:21;14.60;1.00
6357;DHT22;3211;53.452;-2.264;2023-07-30T06:51:06;14.40;1.00
6357;DHT22;3211;53.452;-2.264;2023-07-30T06:53:48;14.40;1.00
6357;DHT22;3211;53.452;-2.264;2023-07-30T06:56:30;14.30;99.90
6357;DHT22;3211;53.452;-2.264;2023-07-30T06:59:11;14.40;99.90
6357;DHT22;3211;53.452;-2.264;2023-07-30T07:01:53;14.30;99.90
6357;DHT22;3211;53.452;-2.264;2023-07-30T07:04:37;14.20;99.90
6357;DHT22;3211;53.452;-2.264;2023-07-30T07:07:19;14.20;99.90
6357;DHT22;3211;53.452;-2.264;2023-07-30T07:10:01;14.30;99.90
6357;DHT22;3211;53.452;-2.264;2023-07-30T07:12:43;14.20;99.90
6357;DHT22;3211;53.452;-2.264;2023-07-30T07:15:25;14.30;99.90
6357;DHT22;3211;53.452;-2.264;2023-07-30T07:18:07;14.30;99.90
6357;DHT22;3211;53.452;-2.264;2023-07-30T07:20:50;14.30;99.90
6357;DHT22;3211;53.452;-2.264;2023-07-30T07:23:33;14.50;99.90
6357;DHT22;3211;53.452;-2.264;2023-07-30T07:26:14;14.80;1.00
6357;DHT22;3211;53.452;-2.264;2023-07-30T07:28:56;14.80;1.00
6357;DHT22;3211;53.452;-2.264;2023-07-30T07:31:38;14.80;99.90
6357;DHT22;3211;53.452;-2.264;2023-07-30T07:34:20;14.90;57.70
6357;DHT22;3211;53.452;-2.264;2023-07-30T07:37:04;15.00;1.00
6357;DHT22;3211;53.452;-2.264;2023-07-30T07:39:46;15.10;1.00
6357;DHT22;3211;53.452;-2.264;2023-07-30T07:42:29;15.30;99.90
6357;DHT22;3211;53.452;-2.264;2023-07-30T07:45:11;15.30;99.90
6357;DHT22;3211;53.452;-2.264;2023-07-30T07:47:53;15.40;99.90
6357;DHT22;3211;53.452;-2.264;2023-07-30T07:50:35;15.40;99.90
6357;DHT22;3211;53.452;-2.264;2023-07-30T07:53:18;15.40;99.90
6357;DHT22;3211;53.452;-2.264;2023-07-30T07:56:00;15.40;99.90
6357;DHT22;3211;53.452;-2.264;2023-07-30T07:58:45;15.20;99.90
6357;DHT22;3211;53.452;-2.264;2023-07-30T08:01:27;15.20;1.00
6357;DHT22;3211;53.452;-2.264;2023-07-30T08:04:09;15.20;96.40
6357;DHT22;3211;53.452;-2.264;2023-07-30T08:06:51;15.10;99.90
6357;DHT22;3211;53.452;-2.264;2023-07-30T08:09:34;15.20;99.90
6357;DHT22;3211;53.452;-2.264;2023-07-30T08:12:18;15.20;1.00
6357;DHT22;3211;53.452;-2.264;2023-07-30T08:15:00;15.40;24.20
6357;DHT22;3211;53.452;-2.264;2023-07-30T08:17:42;15.50;99.90
6357;DHT22;3211;53.452;-2.264;2023-07-30T08:20:24;15.60;1.00
6357;DHT22;3211;53.452;-2.264;2023-07-30T08:23:06;15.60;1.00
6357;DHT22;3211;53.452;-2.264;2023-07-30T08:25:49;15.50;99.90
6357;DHT22;3211;53.452;-2.264;2023-07-30T08:28:31;15.50;1.00
6357;DHT22;3211;53.452;-2.264;2023-07-30T08:31:13;15.50;99.90
6357;DHT22;3211;53.452;-2.264;2023-07-30T08:33:55;15.60;99.90
6357;DHT22;3211;53.452;-2.264;2023-07-30T08:36:41;15.60;99.90
6357;DHT22;3211;53.452;-2.264;2023-07-30T08:39:27;15.70;99.90
6357;DHT22;3211;53.452;-2.264;2023-07-30T08:42:10;15.70;99.90
6357;DHT22;3211;53.452;-2.264;2023-07-30T08:44:52;15.50;99.90
6357;DHT22;3211;53.452;-2.264;2023-07-30T08:47:34;15.20;99.90
6357;DHT22;3211;53.452;-2.264;2023-07-30T08:50:16;15.30;99.90
6357;DHT22;3211;53.452;-2.264;2023-07-30T08:52:59;15.30;99.90
6357;DHT22;3211;53.452;-2.264;2023-07-30T08:55:42;15.10;1.00
6357;DHT22;3211;53.452;-2.264;2023-07-30T08:58:26;15.10;1.00
6357;DHT22;3211;53.452;-2.264;2023-07-30T09:01:10;15.40;1.00
6357;DHT22;3211;53.452;-2.264;2023-07-30T09:03:53;15.50;59.40
6357;DHT22;3211;53.452;-2.264;2023-07-30T09:06:35;15.80;99.90
6357;DHT22;3211;53.452;-2.264;2023-07-30T09:09:19;15.90;99.90
6357;DHT22;3211;53.452;-2.264;2023-07-30T09:12:01;15.90;39.10
6357;DHT22;3211;53.452;-2.264;2023-07-30T09:14:50;16.10;99.90
6357;DHT22;3211;53.452;-2.264;2023-07-30T09:17:33;16.20;1.00
6357;DHT22;3211;53.452;-2.264;2023-07-30T09:20:17;16.30;99.90
6357;DHT22;3211;53.452;-2.264;2023-07-30T09:22:59;16.30;1.00
6357;DHT22;3211;53.452;-2.264;2023-07-30T09:25:41;16.20;1.00
6357;DHT22;3211;53.452;-2.264;2023-07-30T09:28:30;16.40;1.00
6357;DHT22;3211;53.452;-2.264;2023-07-30T09:31:13;16.70;1.00
6357;DHT22;3211;53.452;-2.264;2023-07-30T09:33:55;16.70;99.90
6357;DHT22;3211;53.452;-2.264;2023-07-30T09:36:37;16.80;1.00
6357;DHT22;3211;53.452;-2.264;2023-07-30T09:39:21;17.00;1.00
6357;DHT22;3211;53.452;-2.264;2023-07-30T09:42:05;17.00;1.00
6357;DHT22;3211;53.452;-2.264;2023-07-30T09:44:47;17.10;10.70
6357;DHT22;3211;53.452;-2.264;2023-07-30T09:47:31;17.10;98.10
6357;DHT22;3211;53.452;-2.264;2023-07-30T09:50:15;17.10;99.90
6357;DHT22;3211;53.452;-2.264;2023-07-30T09:52:58;17.00;99.90
6357;DHT22;3211;53.452;-2.264;2023-07-30T09:55:42;17.10;99.90
6357;DHT22;3211;53.452;-2.264;2023-07-30T09:58:24;17.30;1.00
6357;DHT22;3211;53.452;-2.264;2023-07-30T10:01:06;17.50;99.90
6357;DHT22;3211;53.452;-2.264;2023-07-30T10:03:49;17.50;99.90
6357;DHT22;3211;53.452;-2.264;2023-07-30T10:06:32;17.40;96.20
6357;DHT22;3211;53.452;-2.264;2023-07-30T10:09:17;17.50;99.90
6357;DHT22;3211;53.452;-2.264;2023-07-30T10:12:01;17.70;99.90
6357;DHT22;3211;53.452;-2.264;2023-07-30T10:14:45;17.80;99.90
6357;DHT22;3211;53.452;-2.264;2023-07-30T10:17:28;17.80;99.90
6357;DHT22;3211;53.452;-2.264;2023-07-30T10:20:25;17.80;99.90
6357;DHT22;3211;53.452;-2.264;2023-07-30T10:23:07;17.90;1.00
6357;DHT22;3211;53.452;-2.264;2023-07-30T10:25:50;17.90;1.00
6357;DHT22;3211;53.452;-2.264;2023-07-30T10:28:33;17.90;1.00
6357;DHT22;3211;53.452;-2.264;2023-07-30T10:31:16;18.10;1.00
6357;DHT22;3211;53.452;-2.264;2023-07-30T10:34:07;18.20;1.00
6357;DHT22;3211;53.452;-2.264;2023-07-30T10:36:50;18.30;1.00
6357;DHT22;3211;53.452;-2.264;2023-07-30T10:39:33;18.10;99.90
6357;DHT22;3211;53.452;-2.264;2023-07-30T10:42:15;18.00;99.90
6357;DHT22;3211;53.452;-2.264;2023-07-30T10:44:58;18.10;1.00
6357;DHT22;3211;53.452;-2.264;2023-07-30T10:47:41;18.10;99.90
6357;DHT22;3211;53.452;-2.264;2023-07-30T10:50:23;18.20;99.90
6357;DHT22;3211;53.452;-2.264;2023-07-30T10:53:09;18.10;99.90
6357;DHT22;3211;53.452;-2.264;2023-07-30T10:55:52;18.10;99.90
6357;DHT22;3211;53.452;-2.264;2023-07-30T10:58:35;18.00;99.90
6357;DHT22;3211;53.452;-2.264;2023-07-30T11:01:18;18.00;99.90
6357;DHT22;3211;53.452;-2.264;2023-07-30T11:04:00;17.80;99.90
6357;DHT22;3211;53.452;-2.264;2023-07-30T11:06:45;17.80;99.90
6357;DHT22;3211;53.452;-2.264;2023-07-30T11:09:29;17.80;99.90
6357;DHT22;3211;53.452;-2.264;2023-07-30T11:12:11;17.90;99.90
6357;DHT22;3211;53.452;-2.264;2023-07-30T11:15:02;18.00;99.90
6357;DHT22;3211;53.452;-2.264;2023-07-30T11:17:44;17.90;99.90
6357;DHT22;3211;53.452;-2.264;2023-07-30T11:20:26;17.90;99.90
6357;DHT22;3211;53.452;-2.264;2023-07-30T11:23:19;18.00;99.90
6357;DHT22;3211;53.452;-2.264;2023-07-30T11:26:04;17.90;1.00
6357;DHT22;3211;53.452;-2.264;2023-07-30T11:28:46;18.20;99.90
6357;DHT22;3211;53.452;-2.264;2023-07-30T11:31:28;18.20;99.90
6357;DHT22;3211;53.452;-2.264;2023-07-30T11:34:11;18.30;99.90
6357;DHT22;3211;53.452;-2.264;2023-07-30T11:36:54;18.50;99.90
6357;DHT22;3211;53.452;-2.264;2023-07-30T11:39:36;18.70;99.90
6357;DHT22;3211;53.452;-2.264;2023-07-30T11:42:20;18.70;1.00
6357;DHT22;3211;53.452;-2.264;2023-07-30T11:45:17;19.00;1.00
6357;DHT22;3211;53.452;-2.264;2023-07-30T11:48:06;18.80;1.00
6357;DHT22;3211;53.452;-2.264;2023-07-30T11:50:50;18.60;1.00
6357;DHT22;3211;53.452;-2.264;2023-07-30T11:53:45;18.50;1.00
6357;DHT22;3211;53.452;-2.264;2023-07-30T11:56:29;18.60;1.00
6357;DHT22;3211;53.452;-2.264;2023-07-30T11:59:13;18.60;1.00
6357;DHT22;3211;53.452;-2.264;2023-07-30T12:01:55;18.70;1.00
6357;DHT22;3211;53.452;-2.264;2023-07-30T12:04:44;18.70;1.00
6357;DHT22;3211;53.452;-2.264;2023-07-30T12:07:26;18.80;1.00
6357;DHT22;3211;53.452;-2.264;2023-07-30T12:10:09;18.80;1.00
6357;DHT22;3211;53.452;-2.264;2023-07-30T12:12:52;18.80;9.30
6357;DHT22;3211;53.452;-2.264;2023-07-30T12:15:35;18.70;99.90
6357;DHT22;3211;53.452;-2.264;2023-07-30T12:18:17;18.50;99.90
6357;DHT22;3211;53.452;-2.264;2023-07-30T12:20:59;18.90;99.90
6357;DHT22;3211;53.452;-2.264;2023-07-30T12:23:41;19.90;1.00
6357;DHT22;3211;53.452;-2.264;2023-07-30T12:26:23;19.90;1.00
6357;DHT22;3211;53.452;-2.264;2023-07-30T12:29:05;19.80;1.00
6357;DHT22;3211;53.452;-2.264;2023-07-30T12:31:49;19.80;1.00
6357;DHT22;3211;53.452;-2.264;2023-07-30T12:34:33;19.50;1.00
6357;DHT22;3211;53.452;-2.264;2023-07-30T12:37:15;19.40;1.00
6357;DHT22;3211;53.452;-2.264;2023-07-30T12:39:57;19.60;1.00
6357;DHT22;3211;53.452;-2.264;2023-07-30T12:42:39;19.50;1.00
6357;DHT22;3211;53.452;-2.264;2023-07-30T12:45:21;19.50;1.00
6357;DHT22;3211;53.452;-2.264;2023-07-30T12:48:05;19.40;1.00
6357;DHT22;3211;53.452;-2.264;2023-07-30T12:50:48;19.20;1.00
6357;DHT22;3211;53.452;-2.264;2023-07-30T12:53:30;19.40;1.00
6357;DHT22;3211;53.452;-2.264;2023-07-30T12:56:12;19.20;1.00
6357;DHT22;3211;53.452;-2.264;2023-07-30T12:58:55;19.30;1.00
6357;DHT22;3211;53.452;-2.264;2023-07-30T13:01:37;19.40;1.00
6357;DHT22;3211;53.452;-2.264;2023-07-30T13:04:21;19.10;1.00
6357;DHT22;3211;53.452;-2.264;2023-07-30T13:07:03;18.90;1.00
6357;DHT22;3211;53.452;-2.264;2023-07-30T13:09:46;18.80;37.80
6357;DHT22;3211;53.452;-2.264;2023-07-30T13:12:28;18.70;1.00
6357;DHT22;3211;53.452;-2.264;2023-07-30T13:15:10;18.80;99.90
6357;DHT22;3211;53.452;-2.264;2023-07-30T13:17:52;18.80;1.00
6357;DHT22;3211;53.452;-2.264;2023-07-30T13:20:35;18.90;1.00
6357;DHT22;3211;53.452;-2.264;2023-07-30T13:23:17;19.00;1.00
6357;DHT22;3211;53.452;-2.264;2023-07-30T13:26:00;19.00;1.00
6357;DHT22;3211;53.452;-2.264;2023-07-30T13:28:43;19.20;1.00
6357;DHT22;3211;53.452;-2.264;2023-07-30T13:31:25;19.40;1.00
6357;DHT22;3211;53.452;-2.264;2023-07-30T13:34:07;19.40;1.00
6357;DHT22;3211;53.452;-2.264;2023-07-30T13:36:50;19.50;1.00
6357;DHT22;3211;53.452;-2.264;2023-07-30T13:39:32;19.50;99.90
6357;DHT22;3211;53.452;-2.264;2023-07-30T13:42:14;19.20;99.90
6357;DHT22;3211;53.452;-2.264;2023-07-30T13:44:56;19.10;99.90
6357;DHT22;3211;53.452;-2.264;2023-07-30T13:47:39;18.80;1.00
6357;DHT22;3211;53.452;-2.264;2023-07-30T13:50:22;18.70;1.00
6357;DHT22;3211;53.452;-2.264;2023-07-30T13:53:05;18.70;1.00
6357;DHT22;3211;53.452;-2.264;2023-07-30T13:55:47;18.80;1.00
6357;DHT22;3211;53.452;-2.264;2023-07-30T13:58:29;18.80;1.00
6357;DHT22;3211;53.452;-2.264;2023-07-30T14:01:11;18.70;1.00
6357;DHT22;3211;53.452;-2.264;2023-07-30T14:03:54;18.70;1.00
6357;DHT22;3211;53.452;-2.264;2023-07-30T14:06:36;18.70;1.00
6357;DHT22;3211;53.452;-2.264;2023-07-30T14:09:20;18.60;1.00
6357;DHT22;3211;53.452;-2.264;2023-07-30T14:12:02;18.60;1.00
6357;DHT22;3211;53.452;-2.264;2023-07-30T14:14:44;18.50;1.00
6357;DHT22;3211;53.452;-2.264;2023-07-30T14:17:26;18.60;1.00
6357;DHT22;3211;53.452;-2.264;2023-07-30T14:20:09;18.80;1.00
6357;DHT22;3211;53.452;-2.264;2023-07-30T14:22:51;18.90;1.00
6357;DHT22;3211;53.452;-2.264;2023-07-30T14:25:36;18.90;1.00
6357;DHT22;3211;53.452;-2.264;2023-07-30T14:28:18;19.00;99.90
6357;DHT22;3211;53.452;-2.264;2023-07-30T14:30:59;19.00;99.90
6357;DHT22;3211;53.452;-2.264;2023-07-30T14:33:41;19.00;99.90
6357;DHT22;3211;53.452;-2.264;2023-07-30T14:36:23;18.80;1.00
6357;DHT22;3211;53.452;-2.264;2023-07-30T14:39:05;18.80;1.00
6357;DHT22;3211;53.452;-2.264;2023-07-30T14:41:48;18.80;1.00
6357;DHT22;3211;53.452;-2.264;2023-07-30T14:44:30;18.80;1.00
6357;DHT22;3211;53.452;-2.264;2023-07-30T14:47:12;18.70;1.00
6357;DHT22;3211;53.452;-2.264;2023-07-30T14:49:54;18.70;62.00
6357;DHT22;3211;53.452;-2.264;2023-07-30T14:52:36;18.70;99.90
6357;DHT22;3211;53.452;-2.264;2023-07-30T14:55:18;18.80;99.90
6357;DHT22;3211;53.452;-2.264;2023-07-30T14:58:01;18.90;99.90
6357;DHT22;3211;53.452;-2.264;2023-07-30T15:00:44;18.90;58.10
6357;DHT22;3211;53.452;-2.264;2023-07-30T15:03:26;19.00;99.90
6357;DHT22;3211;53.452;-2.264;2023-07-30T15:06:08;18.90;99.90
6357;DHT22;3211;53.452;-2.264;2023-07-30T15:08:50;18.90;99.90
6357;DHT22;3211;53.452;-2.264;2023-07-30T15:11:32;18.70;99.90
6357;DHT22;3211;53.452;-2.264;2023-07-30T15:14:15;18.60;99.90
6357;DHT22;3211;53.452;-2.264;2023-07-30T15:16:57;18.40;99.90
6357;DHT22;3211;53.452;-2.264;2023-07-30T15:19:39;18.50;1.00
6357;DHT22;3211;53.452;-2.264;2023-07-30T15:22:21;18.70;99.90
6357;DHT22;3211;53.452;-2.264;2023-07-30T15:25:04;18.80;40.20
6357;DHT22;3211;53.452;-2.264;2023-07-30T15:27:46;19.10;1.00
6357;DHT22;3211;53.452;-2.264;2023-07-30T15:30:30;19.20;1.00
6357;DHT22;3211;53.452;-2.264;2023-07-30T15:33:12;19.20;1.00
6357;DHT22;3211;53.452;-2.264;2023-07-30T15:35:54;19.40;1.00
6357;DHT22;3211;53.452;-2.264;2023-07-30T15:38:36;19.20;1.00
6357;DHT22;3211;53.452;-2.264;2023-07-30T15:41:18;19.10;10.90
6357;DHT22;3211;53.452;-2.264;2023-07-30T15:43:59;18.90;43.60
6357;DHT22;3211;53.452;-2.264;2023-07-30T15:46:45;18.70;99.90
6357;DHT22;3211;53.452;-2.264;2023-07-30T15:49:28;18.40;1.00
6357;DHT22;3211;53.452;-2.264;2023-07-30T15:52:10;18.20;99.90
6357;DHT22;3211;53.452;-2.264;2023-07-30T15:54:52;18.00;99.90
6357;DHT22;3211;53.452;-2.264;2023-07-30T15:57:34;17.90;1.00
6357;DHT22;3211;53.452;-2.264;2023-07-30T16:00:16;17.80;27.80
6357;DHT22;3211;53.452;-2.264;2023-07-30T16:03:01;17.70;90.70
6357;DHT22;3211;53.452;-2.264;2023-07-30T16:05:46;17.40;99.90
6357;DHT22;3211;53.452;-2.264;2023-07-30T16:08:29;17.30;99.90
6357;DHT22;3211;53.452;-2.264;2023-07-30T16:11:11;17.20;99.90
6357;DHT22;3211;53.452;-2.264;2023-07-30T16:13:54;17.20;1.00
6357;DHT22;3211;53.452;-2.264;2023-07-30T16:16:36;16.70;99.90
6357;DHT22;3211;53.452;-2.264;2023-07-30T16:19:21;16.70;27.70
6357;DHT22;3211;53.452;-2.264;2023-07-30T16:22:04;16.70;1.00
6357;DHT22;3211;53.452;-2.264;2023-07-30T16:24:46;16.40;1.00
6357;DHT22;3211;53.452;-2.264;2023-07-30T16:27:28;16.20;99.90
6357;DHT22;3211;53.452;-2.264;2023-07-30T16:30:10;15.90;99.90
6357;DHT22;3211;53.452;-2.264;2023-07-30T16:32:52;15.90;99.90
6357;DHT22;3211;53.452;-2.264;2023-07-30T16:35:35;15.90;3.20
6357;DHT22;3211;53.452;-2.264;2023-07-30T16:38:18;15.60;99.90
6357;DHT22;3211;53.452;-2.264;2023-07-30T16:41:00;15.70;44.20
6357;DHT22;3211;53.452;-2.264;2023-07-30T16:43:42;15.40;1.00
6357;DHT22;3211;53.452;-2.264;2023-07-30T16:46:24;15.30;99.90
6357;DHT22;3211;53.452;-2.264;2023-07-30T16:49:06;15.40;99.90
6357;DHT22;3211;53.452;-2.264;2023-07-30T16:51:50;15.30;99.90
6357;DHT22;3211;53.452;-2.264;2023-07-30T16:54:33;15.20;99.90
6357;DHT22;3211;53.452;-2.264;2023-07-30T16:57:15;15.10;99.90
6357;DHT22;3211;53.452;-2.264;2023-07-30T16:59:56;15.30;99.90
6357;DHT22;3211;53.452;-2.264;2023-07-30T17:02:38;15.10;99.90
6357;DHT22;3211;53.452;-2.264;2023-07-30T17:05:20;14.90;99.90
6357;DHT22;3211;53.452;-2.264;2023-07-30T17:08:04;14.90;99.90
6357;DHT22;3211;53.452;-2.264;2023-07-30T17:10:46;15.00;99.90
6357;DHT22;3211;53.452;-2.264;2023-07-30T17:13:28;14.90;99.90
6357;DHT22;3211;53.452;-2.264;2023-07-30T17:16:11;15.10;99.90
6357;DHT22;3211;53.452;-2.264;2023-07-30T17:18:52;15.00;99.90
6357;DHT22;3211;53.452;-2.264;2023-07-30T17:21:34;15.10;99.90
6357;DHT22;3211;53.452;-2.264;2023-07-30T17:24:18;15.00;99.90
6357;DHT22;3211;53.452;-2.264;2023-07-30T17:27:00;15.20;99.90
6357;DHT22;3211;53.452;-2.264;2023-07-30T17:29:41;15.20;99.90
6357;DHT22;3211;53.452;-2.264;2023-07-30T17:32:23;15.30;99.90